createdAt,value
2017-04-28T00:01:07.765Z,0
2017-04-28T00:02:18.997Z,0
2017-04-28T00:03:30.272Z,0
2017-04-28T00:04:41.362Z,0
2017-04-28T00:05:52.600Z,0
2017-04-28T00:07:04.026Z,0
2017-04-28T00:08:15.062Z,0
2017-04-28T00:09:26.089Z,0
2017-04-28T00:10:37.120Z,0
2017-04-28T00:11:48.343Z,0
2017-04-28T00:12:59.372Z,0
2017-04-28T00:14:10.408Z,0
2017-04-28T00:15:21.645Z,0
2017-04-28T00:16:32.666Z,0
2017-04-28T00:17:43.689Z,0
2017-04-28T00:18:54.720Z,0
2017-04-28T00:20:05.836Z,0
2017-04-28T00:21:16.889Z,0
2017-04-28T00:22:27.905Z,0
2017-04-28T00:23:38.937Z,0
2017-04-28T00:24:50.171Z,0
2017-04-28T00:26:01.198Z,0
2017-04-28T00:27:12.227Z,0
2017-04-28T00:28:23.460Z,0
2017-04-28T00:29:34.693Z,0
2017-04-28T00:30:45.779Z,0
2017-04-28T00:31:56.810Z,0
2017-04-28T00:33:07.843Z,0
2017-04-28T00:34:18.881Z,0
2017-04-28T00:35:29.917Z,0
2017-04-28T00:36:40.948Z,0
2017-04-28T00:37:51.991Z,0
2017-04-28T00:39:03.032Z,0
2017-04-28T00:40:14.061Z,0
2017-04-28T00:41:25.133Z,0
2017-04-28T00:42:36.173Z,0
2017-04-28T00:43:47.403Z,0
2017-04-28T00:44:58.631Z,0
2017-04-28T00:46:09.692Z,0
2017-04-28T00:47:20.728Z,0
2017-04-28T00:48:31.767Z,0
2017-04-28T00:49:43.046Z,0
2017-04-28T00:50:54.259Z,0
2017-04-28T00:52:05.337Z,0
2017-04-28T00:53:16.354Z,0
2017-04-28T00:54:27.400Z,0
2017-04-28T00:55:38.450Z,0
2017-04-28T00:56:49.481Z,0
2017-04-28T00:58:00.513Z,0
2017-04-28T00:59:11.542Z,0
2017-04-28T01:00:22.584Z,0
2017-04-28T01:01:33.617Z,0
2017-04-28T01:02:44.649Z,0
2017-04-28T01:03:55.882Z,0
2017-04-28T01:05:06.909Z,0
2017-04-28T01:06:17.942Z,0
2017-04-28T01:07:28.986Z,0
2017-04-28T01:08:40.259Z,0
2017-04-28T01:09:51.484Z,0
2017-04-28T01:11:02.528Z,0
2017-04-28T01:12:13.547Z,0
2017-04-28T01:13:24.782Z,0
2017-04-28T01:14:35.821Z,0
2017-04-28T01:15:47.603Z,0
2017-04-28T01:16:58.653Z,0
2017-04-28T01:18:09.737Z,0
2017-04-28T01:19:20.774Z,0
2017-04-28T01:20:31.807Z,0
2017-04-28T01:21:42.825Z,0
2017-04-28T01:22:53.855Z,0
2017-04-28T01:24:05.086Z,0
2017-04-28T01:25:16.113Z,0
2017-04-28T01:26:27.144Z,0
2017-04-28T01:27:38.586Z,0
2017-04-28T01:28:49.675Z,0
2017-04-28T01:30:00.701Z,0
2017-04-28T01:31:11.733Z,0
2017-04-28T01:32:22.758Z,0
2017-04-28T01:33:34.001Z,0
2017-04-28T01:34:45.083Z,0
2017-04-28T01:35:56.109Z,0
2017-04-28T01:37:07.136Z,0
2017-04-28T01:38:18.160Z,0
2017-04-28T01:39:29.251Z,0
2017-04-28T01:40:40.276Z,0
2017-04-28T01:41:51.502Z,0
2017-04-28T01:43:02.542Z,0
2017-04-28T01:44:13.572Z,0
2017-04-28T01:45:24.606Z,0
2017-04-28T01:46:35.835Z,0
2017-04-28T01:47:46.912Z,0
2017-04-28T01:48:57.937Z,0
2017-04-28T01:50:09.211Z,0
2017-04-28T01:51:20.228Z,0
2017-04-28T01:52:31.255Z,0
2017-04-28T01:53:42.311Z,0
2017-04-28T01:54:53.525Z,0
2017-04-28T01:56:04.590Z,0
2017-04-28T01:57:15.612Z,0
2017-04-28T01:58:26.648Z,0
2017-04-28T01:59:37.673Z,0
2017-04-28T02:00:48.966Z,0
2017-04-28T02:02:00.002Z,0
2017-04-28T02:03:11.036Z,0
2017-04-28T02:04:22.477Z,0
2017-04-28T02:05:33.500Z,0
2017-04-28T02:06:44.518Z,0
2017-04-28T02:07:55.554Z,0
2017-04-28T02:09:06.601Z,0
2017-04-28T02:10:17.630Z,0
2017-04-28T02:11:28.713Z,0
2017-04-28T02:12:39.767Z,0
2017-04-28T02:13:50.999Z,0
2017-04-28T02:15:02.016Z,0
2017-04-28T02:16:13.035Z,0
2017-04-28T02:17:24.058Z,0
2017-04-28T02:18:35.288Z,0
2017-04-28T02:19:46.324Z,0
2017-04-28T02:20:57.349Z,0
2017-04-28T02:22:08.622Z,0
2017-04-28T02:23:19.657Z,0
2017-04-28T02:24:30.683Z,0
2017-04-28T02:25:41.715Z,0
2017-04-28T02:26:52.740Z,0
2017-04-28T02:28:03.762Z,0
2017-04-28T02:29:14.796Z,0
2017-04-28T02:30:25.828Z,0
2017-04-28T02:31:36.864Z,0
2017-04-28T02:32:47.940Z,0
2017-04-28T02:33:58.958Z,0
2017-04-28T02:35:09.991Z,0
2017-04-28T02:36:21.003Z,0
2017-04-28T02:37:32.029Z,0
2017-04-28T02:38:43.065Z,0
2017-04-28T02:39:54.096Z,0
2017-04-28T02:41:05.124Z,0
2017-04-28T02:42:16.159Z,0
2017-04-28T02:43:27.246Z,0
2017-04-28T02:44:38.471Z,0
2017-04-28T02:45:49.709Z,0
2017-04-28T02:47:00.746Z,0
2017-04-28T02:48:11.768Z,0
2017-04-28T02:49:22.799Z,0
2017-04-28T02:50:33.819Z,0
2017-04-28T02:51:44.861Z,0
2017-04-28T02:52:55.889Z,0
2017-04-28T02:54:06.971Z,0
2017-04-28T02:55:18.195Z,0
2017-04-28T02:56:29.217Z,0
2017-04-28T02:57:40.256Z,0
2017-04-28T02:58:51.295Z,0
2017-04-28T03:00:02.328Z,0
2017-04-28T03:01:13.353Z,0
2017-04-28T03:02:24.383Z,0
2017-04-28T03:03:35.408Z,0
2017-04-28T03:04:46.693Z,0
2017-04-28T03:05:57.731Z,0
2017-04-28T03:07:08.761Z,0
2017-04-28T03:08:19.798Z,0
2017-04-28T03:09:30.827Z,0
2017-04-28T03:10:41.865Z,0
2017-04-28T03:11:53.097Z,0
2017-04-28T03:13:04.340Z,0
2017-04-28T03:14:15.416Z,0
2017-04-28T03:15:26.642Z,0
2017-04-28T03:16:37.670Z,0
2017-04-28T03:17:48.694Z,0
2017-04-28T03:18:59.738Z,0
2017-04-28T03:20:10.768Z,0
2017-04-28T03:21:22.074Z,0
2017-04-28T03:22:33.103Z,0
2017-04-28T03:23:44.329Z,0
2017-04-28T03:24:55.570Z,0
2017-04-28T03:26:07.198Z,0
2017-04-28T03:27:18.231Z,0
2017-04-28T03:28:29.666Z,4
2017-04-28T03:29:40.898Z,4
2017-04-28T03:30:51.923Z,0
2017-04-28T03:32:03.003Z,0
2017-04-28T03:33:14.037Z,4
2017-04-28T03:34:25.071Z,0
2017-04-28T03:35:36.098Z,4
2017-04-28T03:36:47.128Z,4
2017-04-28T03:37:58.155Z,8
2017-04-28T03:39:09.389Z,8
2017-04-28T03:40:20.427Z,8
2017-04-28T03:41:31.467Z,8
2017-04-28T03:42:42.541Z,16
2017-04-28T03:43:53.591Z,16
2017-04-28T03:45:04.626Z,16
2017-04-28T03:46:15.655Z,20
2017-04-28T03:47:26.688Z,24
2017-04-28T03:48:37.782Z,28
2017-04-28T03:49:48.800Z,32
2017-04-28T03:50:59.824Z,40
2017-04-28T03:52:10.841Z,44
2017-04-28T03:53:21.871Z,52
2017-04-28T03:54:32.899Z,64
2017-04-28T03:55:44.144Z,72
2017-04-28T03:56:55.208Z,84
2017-04-28T03:58:06.428Z,92
2017-04-28T03:59:17.448Z,108
2017-04-28T04:00:28.531Z,120
2017-04-28T04:01:39.562Z,136
2017-04-28T04:02:50.592Z,152
2017-04-28T04:04:01.822Z,172
2017-04-28T04:05:12.851Z,192
2017-04-28T04:06:23.868Z,212
2017-04-28T04:07:35.135Z,232
2017-04-28T04:08:46.182Z,260
2017-04-28T04:09:57.462Z,284
2017-04-28T04:11:08.691Z,312
2017-04-28T04:12:19.930Z,344
2017-04-28T04:13:30.968Z,372
2017-04-28T04:14:42.000Z,404
2017-04-28T04:15:53.233Z,440
2017-04-28T04:17:04.466Z,476
2017-04-28T04:18:15.488Z,512
2017-04-28T04:19:26.512Z,552
2017-04-28T04:20:37.600Z,596
2017-04-28T04:21:48.625Z,640
2017-04-28T04:22:59.646Z,688
2017-04-28T04:24:10.917Z,740
2017-04-28T04:25:22.146Z,788
2017-04-28T04:26:33.167Z,852
2017-04-28T04:27:44.198Z,928
2017-04-28T04:28:55.230Z,1036
2017-04-28T04:30:06.282Z,1108
2017-04-28T04:31:17.363Z,1200
2017-04-28T04:32:28.403Z,1272
2017-04-28T04:33:39.429Z,1384
2017-04-28T04:34:50.656Z,1552
2017-04-28T04:36:01.892Z,1532
2017-04-28T04:37:12.910Z,1628
2017-04-28T04:38:23.950Z,1840
2017-04-28T04:39:34.979Z,1840
2017-04-28T04:40:46.024Z,1756
2017-04-28T04:41:57.065Z,1604
2017-04-28T04:43:08.141Z,1588
2017-04-28T04:44:19.370Z,1408
2017-04-28T04:45:30.605Z,1372
2017-04-28T04:46:41.633Z,1368
2017-04-28T04:47:52.861Z,1364
2017-04-28T04:49:03.886Z,1336
2017-04-28T04:50:14.917Z,1304
2017-04-28T04:51:25.944Z,1280
2017-04-28T04:52:37.236Z,1260
2017-04-28T04:53:48.284Z,1272
2017-04-28T04:54:59.528Z,1356
2017-04-28T04:56:10.551Z,1456
2017-04-28T04:57:21.793Z,1440
2017-04-28T04:58:32.817Z,1408
2017-04-28T04:59:43.853Z,1440
2017-04-28T05:00:55.084Z,1424
2017-04-28T05:02:06.114Z,1412
2017-04-28T05:03:17.202Z,1460
2017-04-28T05:04:28.244Z,1520
2017-04-28T05:05:39.310Z,1548
2017-04-28T05:06:50.332Z,1576
2017-04-28T05:08:01.366Z,1624
2017-04-28T05:09:12.408Z,1712
2017-04-28T05:10:23.432Z,1872
2017-04-28T05:11:34.863Z,2016
2017-04-28T05:12:45.897Z,2112
2017-04-28T05:13:56.982Z,2240
2017-04-28T05:15:08.016Z,2416
2017-04-28T05:16:19.047Z,2840
2017-04-28T05:17:30.280Z,3412
2017-04-28T05:18:41.314Z,3812
2017-04-28T05:19:52.346Z,3908
2017-04-28T05:21:03.373Z,3816
2017-04-28T05:22:14.428Z,3684
2017-04-28T05:23:25.457Z,3624
2017-04-28T05:24:36.535Z,3640
2017-04-28T05:25:47.558Z,3728
2017-04-28T05:26:58.588Z,3952
2017-04-28T05:28:09.818Z,4220
2017-04-28T05:29:20.853Z,4388
2017-04-28T05:30:31.880Z,4552
2017-04-28T05:31:42.905Z,4948
2017-04-28T05:32:54.137Z,5344
2017-04-28T05:34:05.180Z,5292
2017-04-28T05:35:16.267Z,5144
2017-04-28T05:36:27.314Z,5040
2017-04-28T05:37:38.344Z,4892
2017-04-28T05:38:49.374Z,4532
2017-04-28T05:40:00.396Z,4248
2017-04-28T05:41:11.425Z,4188
2017-04-28T05:42:22.456Z,4060
2017-04-28T05:43:33.490Z,3848
2017-04-28T05:44:44.520Z,3788
2017-04-28T05:45:55.591Z,3796
2017-04-28T05:47:06.617Z,3776
2017-04-28T05:48:17.848Z,3764
2017-04-28T05:49:28.890Z,3808
2017-04-28T05:50:40.120Z,3880
2017-04-28T05:51:51.156Z,3956
2017-04-28T05:53:02.201Z,3856
2017-04-28T05:54:13.243Z,3568
2017-04-28T05:55:24.284Z,3280
2017-04-28T05:56:35.345Z,3128
2017-04-28T05:57:46.379Z,2996
2017-04-28T05:58:57.413Z,2832
2017-04-28T06:00:08.463Z,2720
2017-04-28T06:01:19.517Z,2664
2017-04-28T06:02:30.760Z,2624
2017-04-28T06:03:41.798Z,2604
2017-04-28T06:04:53.030Z,2588
2017-04-28T06:06:04.070Z,2560
2017-04-28T06:07:15.103Z,2520
2017-04-28T06:08:26.205Z,2464
2017-04-28T06:09:37.422Z,2432
2017-04-28T06:10:48.461Z,2376
2017-04-28T06:11:59.902Z,2292
2017-04-28T06:13:10.938Z,2180
2017-04-28T06:14:21.969Z,2120
2017-04-28T06:15:33.005Z,2072
2017-04-28T06:16:44.035Z,2028
2017-04-28T06:17:55.125Z,1984
2017-04-28T06:19:06.151Z,1924
2017-04-28T06:20:17.382Z,1892
2017-04-28T06:21:28.616Z,1880
2017-04-28T06:22:39.652Z,1860
2017-04-28T06:23:50.685Z,1776
2017-04-28T06:25:01.920Z,1764
2017-04-28T06:26:13.155Z,1776
2017-04-28T06:27:24.193Z,1776
2017-04-28T06:28:35.285Z,1776
2017-04-28T06:29:46.312Z,1756
2017-04-28T06:30:57.546Z,1740
2017-04-28T06:32:08.577Z,1784
2017-04-28T06:33:19.609Z,1892
2017-04-28T06:34:30.637Z,2056
2017-04-28T06:35:41.663Z,2160
2017-04-28T06:36:52.679Z,2172
2017-04-28T06:38:03.701Z,2128
2017-04-28T06:39:14.787Z,2092
2017-04-28T06:40:26.027Z,2084
2017-04-28T06:41:37.056Z,2104
2017-04-28T06:42:48.090Z,2128
2017-04-28T06:43:59.124Z,2164
2017-04-28T06:45:10.155Z,2192
2017-04-28T06:46:21.384Z,2244
2017-04-28T06:47:32.422Z,2304
2017-04-28T06:48:43.460Z,2336
2017-04-28T06:49:54.542Z,2320
2017-04-28T06:51:05.584Z,2256
2017-04-28T06:52:16.606Z,2232
2017-04-28T06:53:27.645Z,2212
2017-04-28T06:54:38.679Z,2168
2017-04-28T06:55:49.903Z,2132
2017-04-28T06:57:00.920Z,2112
2017-04-28T06:58:12.156Z,2096
2017-04-28T06:59:23.196Z,2104
2017-04-28T07:00:34.272Z,2128
2017-04-28T07:01:45.294Z,2164
2017-04-28T07:02:56.539Z,2232
2017-04-28T07:04:07.582Z,2304
2017-04-28T07:05:18.609Z,2360
2017-04-28T07:06:29.841Z,2452
2017-04-28T07:07:41.073Z,2492
2017-04-28T07:08:52.133Z,2524
2017-04-28T07:10:03.165Z,2540
2017-04-28T07:11:14.234Z,2548
2017-04-28T07:12:25.255Z,2540
2017-04-28T07:13:36.489Z,2544
2017-04-28T07:14:47.529Z,2608
2017-04-28T07:15:58.557Z,2748
2017-04-28T07:17:09.584Z,2924
2017-04-28T07:18:20.595Z,3096
2017-04-28T07:19:31.619Z,3200
2017-04-28T07:20:42.659Z,3252
2017-04-28T07:21:53.943Z,3260
2017-04-28T07:23:04.964Z,3244
2017-04-28T07:24:16.008Z,3232
2017-04-28T07:25:27.033Z,3232
2017-04-28T07:26:38.070Z,3252
2017-04-28T07:27:49.307Z,3284
2017-04-28T07:29:00.342Z,3340
2017-04-28T07:30:11.373Z,3432
2017-04-28T07:31:22.397Z,3568
2017-04-28T07:32:33.468Z,3696
2017-04-28T07:33:44.500Z,3820
2017-04-28T07:34:55.530Z,3988
2017-04-28T07:36:06.552Z,4160
2017-04-28T07:37:17.584Z,4328
2017-04-28T07:38:28.611Z,4424
2017-04-28T07:39:39.648Z,4448
2017-04-28T07:40:50.682Z,4424
2017-04-28T07:42:01.721Z,4376
2017-04-28T07:43:12.798Z,4360
2017-04-28T07:44:23.827Z,4396
2017-04-28T07:45:35.068Z,4440
2017-04-28T07:46:46.084Z,4460
2017-04-28T07:47:57.107Z,4480
2017-04-28T07:49:08.343Z,4524
2017-04-28T07:50:19.379Z,4512
2017-04-28T07:51:30.406Z,4548
2017-04-28T07:52:41.629Z,4568
2017-04-28T07:53:52.697Z,4624
2017-04-28T07:55:04.134Z,4704
2017-04-28T07:56:15.169Z,4832
2017-04-28T07:57:26.214Z,4972
2017-04-28T07:58:37.267Z,5132
2017-04-28T07:59:48.294Z,5296
2017-04-28T08:00:59.330Z,5460
2017-04-28T08:02:10.364Z,5640
2017-04-28T08:03:21.386Z,5848
2017-04-28T08:04:32.461Z,6112
2017-04-28T08:05:43.499Z,6476
2017-04-28T08:06:54.528Z,6928
2017-04-28T08:08:05.559Z,7408
2017-04-28T08:09:16.590Z,7844
2017-04-28T08:10:27.826Z,8224
2017-04-28T08:11:39.258Z,8552
2017-04-28T08:12:50.287Z,8836
2017-04-28T08:14:01.326Z,9116
2017-04-28T08:15:12.416Z,9440
2017-04-28T08:16:23.440Z,9932
2017-04-28T08:17:34.877Z,10492
2017-04-28T08:18:45.917Z,10876
2017-04-28T08:19:57.137Z,11012
2017-04-28T08:21:08.168Z,10836
2017-04-28T08:22:19.194Z,10392
2017-04-28T08:23:30.225Z,10216
2017-04-28T08:24:41.260Z,10616
2017-04-28T08:25:52.343Z,10968
2017-04-28T08:27:03.376Z,9852
2017-04-28T08:28:14.408Z,9752
2017-04-28T08:29:25.636Z,10208
2017-04-28T08:30:36.662Z,11028
2017-04-28T08:31:47.696Z,12104
2017-04-28T08:32:58.731Z,12492
2017-04-28T08:34:09.770Z,11980
2017-04-28T08:35:21.015Z,10836
2017-04-28T08:36:32.300Z,9488
2017-04-28T08:37:43.367Z,8636
2017-04-28T08:38:54.404Z,8228
2017-04-28T08:40:05.444Z,8164
2017-04-28T08:41:16.693Z,8100
2017-04-28T08:42:27.775Z,7748
2017-04-28T08:43:38.810Z,7236
2017-04-28T08:44:49.841Z,6656
2017-04-28T08:46:00.868Z,6064
2017-04-28T08:47:11.885Z,5512
2017-04-28T08:48:22.919Z,5132
2017-04-28T08:49:33.955Z,4900
2017-04-28T08:50:44.993Z,4792
2017-04-28T08:51:56.229Z,4904
2017-04-28T08:53:07.254Z,5212
2017-04-28T08:54:18.289Z,5708
2017-04-28T08:55:29.325Z,6328
2017-04-28T08:56:40.360Z,7020
2017-04-28T08:57:51.398Z,7720
2017-04-28T08:59:02.470Z,8368
2017-04-28T09:00:13.496Z,8900
2017-04-28T09:01:24.534Z,9264
2017-04-28T09:02:35.775Z,9580
2017-04-28T09:03:46.802Z,9468
2017-04-28T09:04:58.028Z,9240
2017-04-28T09:06:09.057Z,8800
2017-04-28T09:07:20.079Z,8204
2017-04-28T09:08:31.322Z,7784
2017-04-28T09:09:42.405Z,7444
2017-04-28T09:10:53.437Z,7072
2017-04-28T09:12:04.475Z,6612
2017-04-28T09:13:15.514Z,6124
2017-04-28T09:14:26.533Z,5772
2017-04-28T09:15:37.567Z,5600
2017-04-28T09:16:48.609Z,5576
2017-04-28T09:17:59.838Z,5816
2017-04-28T09:19:11.065Z,6132
2017-04-28T09:20:22.356Z,6308
2017-04-28T09:21:33.384Z,6824
2017-04-28T09:22:44.419Z,7236
2017-04-28T09:23:55.453Z,7668
2017-04-28T09:25:06.492Z,8068
2017-04-28T09:26:17.569Z,8448
2017-04-28T09:27:28.606Z,8596
2017-04-28T09:28:39.648Z,8588
2017-04-28T09:29:50.875Z,8672
2017-04-28T09:31:02.105Z,8768
2017-04-28T09:32:13.138Z,9060
2017-04-28T09:33:24.180Z,9968
2017-04-28T09:34:35.208Z,11800
2017-04-28T09:35:46.242Z,15936
2017-04-28T09:36:57.282Z,26624
2017-04-28T09:38:08.359Z,15068
2017-04-28T09:39:19.386Z,12564
2017-04-28T09:40:30.626Z,10724
2017-04-28T09:41:41.664Z,9128
2017-04-28T09:42:52.698Z,8016
2017-04-28T09:44:03.741Z,7208
2017-04-28T09:45:14.781Z,6720
2017-04-28T09:46:25.816Z,6488
2017-04-28T09:47:36.905Z,6408
2017-04-28T09:48:47.941Z,6336
2017-04-28T09:49:58.965Z,6312
2017-04-28T09:51:10.203Z,6340
2017-04-28T09:52:21.442Z,6480
2017-04-28T09:53:32.473Z,6724
2017-04-28T09:54:43.513Z,7072
2017-04-28T09:55:54.540Z,7352
2017-04-28T09:57:05.571Z,7408
2017-04-28T09:58:16.669Z,7232
2017-04-28T09:59:27.699Z,6892
2017-04-28T10:00:38.725Z,6448
2017-04-28T10:01:49.770Z,5992
2017-04-28T10:03:00.996Z,5592
2017-04-28T10:04:12.038Z,5284
2017-04-28T10:05:23.075Z,5044
2017-04-28T10:06:34.299Z,4948
2017-04-28T10:07:45.327Z,5020
2017-04-28T10:08:56.401Z,5144
2017-04-28T10:10:07.428Z,5220
2017-04-28T10:11:18.652Z,5252
2017-04-28T10:12:29.686Z,5260
2017-04-28T10:13:40.923Z,5312
2017-04-28T10:14:51.965Z,5460
2017-04-28T10:16:02.997Z,5720
2017-04-28T10:17:14.029Z,6032
2017-04-28T10:18:25.066Z,6276
2017-04-28T10:19:36.097Z,6376
2017-04-28T10:20:47.180Z,6232
2017-04-28T10:21:58.408Z,6016
2017-04-28T10:23:09.442Z,5884
2017-04-28T10:24:20.478Z,5780
2017-04-28T10:25:31.504Z,5652
2017-04-28T10:26:42.542Z,5596
2017-04-28T10:27:53.766Z,5640
2017-04-28T10:29:04.838Z,5692
2017-04-28T10:30:15.878Z,5732
2017-04-28T10:31:26.911Z,5736
2017-04-28T10:32:37.944Z,5712
2017-04-28T10:33:48.981Z,5652
2017-04-28T10:35:00.009Z,5516
2017-04-28T10:36:11.045Z,5360
2017-04-28T10:37:22.078Z,5224
2017-04-28T10:38:33.109Z,5128
2017-04-28T10:39:44.349Z,5036
2017-04-28T10:40:55.442Z,4956
2017-04-28T10:42:06.475Z,4876
2017-04-28T10:43:17.721Z,4788
2017-04-28T10:44:28.746Z,4708
2017-04-28T10:45:40.211Z,4652
2017-04-28T10:46:51.264Z,4612
2017-04-28T10:48:02.501Z,4580
2017-04-28T10:49:13.729Z,4600
2017-04-28T10:50:24.796Z,4664
2017-04-28T10:51:35.831Z,4784
2017-04-28T10:52:47.108Z,4940
2017-04-28T10:53:58.332Z,5072
2017-04-28T10:55:09.370Z,5132
2017-04-28T10:56:20.611Z,5164
2017-04-28T10:57:31.645Z,5124
2017-04-28T10:58:42.892Z,4988
2017-04-28T10:59:53.927Z,4852
2017-04-28T11:01:04.965Z,4828
2017-04-28T11:02:16.495Z,4872
2017-04-28T11:03:27.541Z,5052
2017-04-28T11:04:38.568Z,5356
2017-04-28T11:05:49.626Z,5728
2017-04-28T11:07:00.645Z,6052
2017-04-28T11:08:11.891Z,6544
2017-04-28T11:09:22.922Z,7460
2017-04-28T11:10:33.962Z,8620
2017-04-28T11:11:44.990Z,10088
2017-04-28T11:12:56.270Z,12064
2017-04-28T11:14:07.304Z,12884
2017-04-28T11:15:18.331Z,12364
2017-04-28T11:16:29.364Z,11748
2017-04-28T11:17:40.388Z,11264
2017-04-28T11:18:51.421Z,10812
2017-04-28T11:20:02.668Z,10368
2017-04-28T11:21:13.709Z,10176
2017-04-28T11:22:24.738Z,9912
2017-04-28T11:23:36.021Z,9484
2017-04-28T11:24:47.065Z,9144
2017-04-28T11:25:58.336Z,9100
2017-04-28T11:27:09.583Z,9196
2017-04-28T11:28:20.614Z,9244
2017-04-28T11:29:31.660Z,9308
2017-04-28T11:30:42.699Z,9228
2017-04-28T11:31:53.735Z,9164
2017-04-28T11:33:04.771Z,9256
2017-04-28T11:34:15.810Z,9688
2017-04-28T11:35:26.842Z,11436
2017-04-28T11:36:37.872Z,14560
2017-04-28T11:37:48.905Z,16704
2017-04-28T11:38:59.947Z,17280
2017-04-28T11:40:11.233Z,17632
2017-04-28T11:41:22.274Z,17760
2017-04-28T11:42:33.313Z,18144
2017-04-28T11:43:44.352Z,20448
2017-04-28T11:44:55.645Z,19712
2017-04-28T11:46:06.688Z,19872
2017-04-28T11:47:17.950Z,21376
2017-04-28T11:48:29.187Z,24320
2017-04-28T11:49:40.216Z,22880
2017-04-28T11:50:51.258Z,21664
2017-04-28T11:52:02.298Z,21408
2017-04-28T11:53:13.349Z,24256
2017-04-28T11:54:24.397Z,30336
2017-04-28T11:55:35.673Z,32864
2017-04-28T11:56:46.716Z,30944
2017-04-28T11:57:57.765Z,30144
2017-04-28T11:59:08.804Z,24192
2017-04-28T12:00:19.877Z,20320
2017-04-28T12:01:30.920Z,20032
2017-04-28T12:02:41.967Z,19328
2017-04-28T12:03:53.006Z,17408
2017-04-28T12:05:04.045Z,19808
2017-04-28T12:06:15.140Z,15712
2017-04-28T12:07:26.183Z,17216
2017-04-28T12:08:37.228Z,17728
2017-04-28T12:09:48.461Z,20288
2017-04-28T12:10:59.498Z,21664
2017-04-28T12:12:10.587Z,21312
2017-04-28T12:13:21.629Z,21824
2017-04-28T12:14:32.681Z,21312
2017-04-28T12:15:43.717Z,16576
2017-04-28T12:16:54.759Z,19008
2017-04-28T12:18:05.799Z,19072
2017-04-28T12:19:16.851Z,20512
2017-04-28T12:20:28.145Z,19104
2017-04-28T12:21:39.577Z,17856
2017-04-28T12:22:50.659Z,18304
2017-04-28T12:24:01.694Z,13608
2017-04-28T12:25:12.726Z,16096
2017-04-28T12:26:23.979Z,18880
2017-04-28T12:27:35.021Z,18144
2017-04-28T12:28:46.060Z,16640
2017-04-28T12:29:57.320Z,15648
2017-04-28T12:31:08.356Z,10640
2017-04-28T12:32:19.606Z,10528
2017-04-28T12:33:30.696Z,11180
2017-04-28T12:34:41.979Z,12288
2017-04-28T12:35:53.036Z,12624
2017-04-28T12:37:04.282Z,12068
2017-04-28T12:38:15.320Z,12416
2017-04-28T12:39:26.376Z,12844
2017-04-28T12:40:37.411Z,13920
2017-04-28T12:41:48.644Z,15200
2017-04-28T12:42:59.687Z,14784
2017-04-28T12:44:10.785Z,16544
2017-04-28T12:45:21.825Z,15296
2017-04-28T12:46:32.870Z,14140
2017-04-28T12:47:43.904Z,13592
2017-04-28T12:48:54.940Z,13316
2017-04-28T12:50:05.983Z,13124
2017-04-28T12:51:17.037Z,12708
2017-04-28T12:52:28.069Z,12492
2017-04-28T12:53:39.113Z,12228
2017-04-28T12:54:50.409Z,11912
2017-04-28T12:56:01.433Z,11824
2017-04-28T12:57:12.460Z,11640
2017-04-28T12:58:23.525Z,11408
2017-04-28T12:59:34.566Z,11356
2017-04-28T13:00:45.608Z,11524
2017-04-28T13:01:56.648Z,11692
2017-04-28T13:03:07.695Z,11912
2017-04-28T13:04:18.736Z,12576
2017-04-28T13:05:29.816Z,12868
2017-04-28T13:06:40.915Z,12016
2017-04-28T13:07:51.943Z,11700
2017-04-28T13:09:02.966Z,11340
2017-04-28T13:10:13.999Z,11228
2017-04-28T13:11:25.034Z,11224
2017-04-28T13:12:36.283Z,11104
2017-04-28T13:13:47.316Z,10884
2017-04-28T13:14:58.354Z,10348
2017-04-28T13:16:09.485Z,9684
2017-04-28T13:17:20.525Z,9168
2017-04-28T13:18:31.554Z,8844
2017-04-28T13:19:42.589Z,8464
2017-04-28T13:20:53.832Z,8120
2017-04-28T13:22:04.865Z,8792
2017-04-28T13:23:15.912Z,9032
2017-04-28T13:24:26.957Z,10680
2017-04-28T13:25:38.001Z,10332
2017-04-28T13:26:49.092Z,10240
2017-04-28T13:28:00.139Z,10080
2017-04-28T13:29:11.186Z,10344
2017-04-28T13:30:22.221Z,12284
2017-04-28T13:31:33.466Z,11820
2017-04-28T13:32:44.509Z,13632
2017-04-28T13:33:55.552Z,14400
2017-04-28T13:35:06.823Z,12652
2017-04-28T13:36:17.858Z,11572
2017-04-28T13:37:28.954Z,10016
2017-04-28T13:38:39.984Z,9476
2017-04-28T13:39:51.024Z,9264
2017-04-28T13:41:02.052Z,8996
2017-04-28T13:42:13.096Z,8668
2017-04-28T13:43:24.335Z,8064
2017-04-28T13:44:35.368Z,7156
2017-04-28T13:45:46.445Z,6304
2017-04-28T13:46:57.487Z,5740
2017-04-28T13:48:08.517Z,5712
2017-04-28T13:49:19.801Z,5952
2017-04-28T13:50:31.036Z,5704
2017-04-28T13:51:42.278Z,5868
2017-04-28T13:52:53.526Z,5816
2017-04-28T13:54:04.761Z,5448
2017-04-28T13:55:16.004Z,5112
2017-04-28T13:56:27.250Z,5084
2017-04-28T13:57:38.492Z,5212
2017-04-28T13:58:49.577Z,5244
2017-04-28T14:00:00.819Z,5128
2017-04-28T14:01:12.067Z,5008
2017-04-28T14:02:23.132Z,6100
2017-04-28T14:03:34.174Z,4896
2017-04-28T14:04:45.243Z,4908
2017-04-28T14:05:56.283Z,5048
2017-04-28T14:07:07.359Z,4968
2017-04-28T14:08:18.392Z,5088
2017-04-28T14:09:29.478Z,5260
2017-04-28T14:10:40.721Z,5312
2017-04-28T14:11:51.953Z,5268
2017-04-28T14:13:03.201Z,5120
2017-04-28T14:14:14.242Z,5060
2017-04-28T14:15:25.296Z,5008
2017-04-28T14:16:36.322Z,4940
2017-04-28T14:17:47.348Z,4876
2017-04-28T14:18:58.382Z,4840
2017-04-28T14:20:09.418Z,4832
2017-04-28T14:21:20.460Z,4904
2017-04-28T14:22:31.507Z,5292
2017-04-28T14:23:42.549Z,5292
2017-04-28T14:24:53.586Z,5596
2017-04-28T14:26:04.634Z,5908
2017-04-28T14:27:15.665Z,6248
2017-04-28T14:28:26.898Z,6484
2017-04-28T14:29:37.938Z,6668
2017-04-28T14:30:49.038Z,6860
2017-04-28T14:32:00.082Z,7032
2017-04-28T14:33:11.119Z,7168
2017-04-28T14:34:22.159Z,7292
2017-04-28T14:35:33.185Z,7396
2017-04-28T14:36:44.429Z,7432
2017-04-28T14:37:55.470Z,7604
2017-04-28T14:39:06.719Z,7584
2017-04-28T14:40:17.948Z,7472
2017-04-28T14:41:29.245Z,7360
2017-04-28T14:42:40.292Z,7240
2017-04-28T14:43:51.334Z,7212
2017-04-28T14:45:02.577Z,7232
2017-04-28T14:46:13.819Z,7264
2017-04-28T14:47:24.858Z,7292
2017-04-28T14:48:35.886Z,7340
2017-04-28T14:49:47.119Z,7428
2017-04-28T14:50:58.558Z,7576
2017-04-28T14:52:09.635Z,7668
2017-04-28T14:53:20.676Z,7792
2017-04-28T14:54:31.731Z,8204
2017-04-28T14:55:42.763Z,8196
2017-04-28T14:56:53.804Z,7892
2017-04-28T14:58:05.054Z,7640
2017-04-28T14:59:16.104Z,7556
2017-04-28T15:00:27.150Z,7604
2017-04-28T15:01:38.401Z,7668
2017-04-28T15:02:49.442Z,7736
2017-04-28T15:04:00.473Z,8064
2017-04-28T15:05:11.551Z,7584
2017-04-28T15:06:22.792Z,7552
2017-04-28T15:07:33.830Z,7488
2017-04-28T15:08:44.882Z,7436
2017-04-28T15:09:55.936Z,7456
2017-04-28T15:11:06.960Z,7720
2017-04-28T15:12:18.002Z,8624
2017-04-28T15:13:29.087Z,8140
2017-04-28T15:14:40.332Z,7888
2017-04-28T15:15:51.388Z,8200
2017-04-28T15:17:02.427Z,8248
2017-04-28T15:18:13.460Z,7276
2017-04-28T15:19:24.693Z,7052
2017-04-28T15:20:35.732Z,6904
2017-04-28T15:21:46.967Z,6836
2017-04-28T15:22:58.194Z,6588
2017-04-28T15:24:09.281Z,6172
2017-04-28T15:25:20.308Z,5900
2017-04-28T15:26:31.345Z,5700
2017-04-28T15:27:42.588Z,5552
2017-04-28T15:28:53.645Z,5428
2017-04-28T15:30:04.673Z,5264
2017-04-28T15:31:15.914Z,5164
2017-04-28T15:32:26.968Z,5160
2017-04-28T15:33:38.214Z,5136
2017-04-28T15:34:49.300Z,5100
2017-04-28T15:36:00.339Z,5216
2017-04-28T15:37:11.373Z,5392
2017-04-28T15:38:22.419Z,5264
2017-04-28T15:39:33.474Z,5184
2017-04-28T15:40:44.719Z,5164
2017-04-28T15:41:55.959Z,5284
2017-04-28T15:43:06.996Z,5312
2017-04-28T15:44:18.036Z,5304
2017-04-28T15:45:29.105Z,5176
2017-04-28T15:46:40.139Z,4916
2017-04-28T15:47:51.178Z,4684
2017-04-28T15:49:02.218Z,4560
2017-04-28T15:50:13.253Z,4464
2017-04-28T15:51:24.494Z,4308
2017-04-28T15:52:35.532Z,4124
2017-04-28T15:53:46.556Z,3852
2017-04-28T15:54:57.589Z,3564
2017-04-28T15:56:08.666Z,3344
2017-04-28T15:57:19.696Z,3232
2017-04-28T15:58:30.939Z,3140
2017-04-28T15:59:41.994Z,3112
2017-04-28T16:00:53.041Z,3104
2017-04-28T16:02:04.076Z,3100
2017-04-28T16:03:15.122Z,3124
2017-04-28T16:04:26.150Z,3148
2017-04-28T16:05:37.194Z,3128